createdAt,value
2023-04-08T00:00:10.773Z,100.00
2023-04-08T00:02:37.615Z,100.00
2023-04-08T00:05:04.973Z,100.00
2023-04-08T00:07:31.826Z,100.00
2023-04-08T00:09:58.387Z,100.00
2023-04-08T00:12:25.020Z,100.00
2023-04-08T00:14:52.989Z,100.00
2023-04-08T00:17:19.589Z,100.00
2023-04-08T00:19:46.250Z,100.00
2023-04-08T00:22:12.972Z,100.00
2023-04-08T00:24:40.867Z,100.00
2023-04-08T00:27:07.552Z,100.00
2023-04-08T00:29:34.392Z,100.00
2023-04-08T00:32:00.966Z,100.00
2023-04-08T00:34:27.536Z,100.00
2023-04-08T00:36:54.116Z,100.00
2023-04-08T00:39:21.074Z,100.00
2023-04-08T00:41:47.685Z,100.00
2023-04-08T00:44:14.381Z,100.00
2023-04-08T00:46:41.378Z,100.00
2023-04-08T00:49:08.321Z,100.00
2023-04-08T00:51:37.699Z,100.00
2023-04-08T00:54:05.324Z,100.00
2023-04-08T00:56:33.024Z,100.00
2023-04-08T00:59:01.107Z,100.00
2023-04-08T01:01:46.199Z,100.00
2023-04-08T01:04:30.219Z,100.00
2023-04-08T01:07:08.504Z,100.00
2023-04-08T01:09:39.641Z,100.00
2023-04-08T01:12:09.425Z,100.00
2023-04-08T01:14:41.312Z,100.00
2023-04-08T01:17:09.697Z,100.00
2023-04-08T01:19:40.476Z,100.00
2023-04-08T01:22:19.592Z,100.00
2023-04-08T01:24:50.392Z,100.00
2023-04-08T01:27:19.121Z,100.00
2023-04-08T01:29:48.763Z,100.00
2023-04-08T01:32:17.063Z,100.00
2023-04-08T01:34:45.378Z,100.00
2023-04-08T01:37:13.612Z,100.00
2023-04-08T01:39:42.241Z,100.00
2023-04-08T01:42:10.679Z,100.00
2023-04-08T01:44:40.296Z,100.00
2023-04-08T01:47:08.040Z,100.00
2023-04-08T01:49:35.666Z,100.00
2023-04-08T01:52:03.659Z,100.00
2023-04-08T01:54:30.456Z,100.00
2023-04-08T01:56:58.900Z,100.00
2023-04-08T01:59:29.946Z,100.00
2023-04-08T02:01:57.400Z,100.00
2023-04-08T02:04:24.212Z,100.00
2023-04-08T02:06:51.108Z,100.00
2023-04-08T02:09:17.817Z,100.00
2023-04-08T02:11:44.374Z,100.00
2023-04-08T02:14:11.061Z,100.00
2023-04-08T02:16:50.130Z,100.00
2023-04-08T02:19:24.591Z,100.00
2023-04-08T02:21:57.780Z,100.00
2023-04-08T02:24:26.403Z,100.00
2023-04-08T02:26:55.852Z,100.00
2023-04-08T02:29:23.987Z,100.00
2023-04-08T02:31:51.807Z,100.00
2023-04-08T02:34:21.749Z,100.00
2023-04-08T02:36:48.656Z,100.00
2023-04-08T02:39:15.405Z,100.00
2023-04-08T02:41:42.018Z,100.00
2023-04-08T02:44:10.054Z,100.00
2023-04-08T02:46:36.787Z,100.00
2023-04-08T02:49:04.051Z,100.00
2023-04-08T02:51:30.702Z,100.00
2023-04-08T02:53:57.434Z,100.00
2023-04-08T02:56:24.125Z,100.00
2023-04-08T02:58:52.392Z,100.00
2023-04-08T03:01:19.120Z,100.00
2023-04-08T03:03:46.051Z,100.00
2023-04-08T03:06:12.869Z,100.00
2023-04-08T03:08:39.581Z,100.00
2023-04-08T03:11:06.206Z,100.00
2023-04-08T03:13:32.938Z,100.00
2023-04-08T03:15:59.644Z,100.00
2023-04-08T03:18:26.410Z,100.00
2023-04-08T03:20:53.018Z,100.00
2023-04-08T03:23:19.873Z,100.00
2023-04-08T03:25:46.984Z,100.00
2023-04-08T03:28:13.547Z,100.00
2023-04-08T03:30:40.323Z,100.00
2023-04-08T03:33:08.280Z,100.00
2023-04-08T03:35:35.201Z,100.00
2023-04-08T03:38:01.951Z,100.00
2023-04-08T03:40:28.607Z,100.00
2023-04-08T03:42:55.249Z,100.00
2023-04-08T03:45:22.140Z,100.00
2023-04-08T03:47:48.782Z,100.00
2023-04-08T03:50:15.618Z,100.00
2023-04-08T03:52:42.374Z,100.00
2023-04-08T03:55:09.459Z,100.00
2023-04-08T03:57:36.110Z,100.00
2023-04-08T04:00:02.787Z,100.00
2023-04-08T04:02:29.742Z,100.00
2023-04-08T04:04:56.664Z,100.00
2023-04-08T04:07:23.385Z,100.00
2023-04-08T04:09:54.103Z,100.00
2023-04-08T04:12:21.614Z,100.00
2023-04-08T04:14:48.191Z,100.00
2023-04-08T04:17:14.888Z,100.00
2023-04-08T04:19:41.574Z,100.00
2023-04-08T04:22:08.213Z,100.00
2023-04-08T04:24:34.887Z,100.00
2023-04-08T04:27:01.506Z,100.00
2023-04-08T04:29:28.103Z,100.00
2023-04-08T04:31:54.679Z,100.00
2023-04-08T04:34:21.303Z,100.00
2023-04-08T04:36:48.084Z,100.00
2023-04-08T04:39:14.689Z,100.00
2023-04-08T04:41:41.360Z,100.00
2023-04-08T04:44:07.990Z,100.00
2023-04-08T04:46:34.721Z,100.00
2023-04-08T04:49:01.388Z,100.00
2023-04-08T04:51:27.985Z,100.00
2023-04-08T04:53:54.713Z,100.00
2023-04-08T04:56:21.815Z,100.00
2023-04-08T04:58:48.596Z,100.00
2023-04-08T05:01:15.780Z,100.00
2023-04-08T05:03:42.446Z,100.00
2023-04-08T05:06:09.196Z,100.00
2023-04-08T05:08:35.895Z,100.00
2023-04-08T05:11:02.527Z,100.00
2023-04-08T05:13:29.625Z,100.00
2023-04-08T05:15:56.206Z,100.00
2023-04-08T05:18:22.867Z,100.00
2023-04-08T05:20:49.531Z,100.00
2023-04-08T05:23:16.243Z,100.00
2023-04-08T05:25:42.947Z,100.00
2023-04-08T05:28:09.715Z,100.00
2023-04-08T05:30:36.415Z,100.00
2023-04-08T05:33:04.118Z,100.00
2023-04-08T05:35:30.978Z,100.00
2023-04-08T05:37:57.693Z,100.00
2023-04-08T05:40:24.385Z,100.00
2023-04-08T05:42:51.056Z,100.00
2023-04-08T05:45:17.881Z,100.00
2023-04-08T05:47:44.604Z,100.00
2023-04-08T05:50:11.561Z,100.00
2023-04-08T05:52:41.940Z,100.00
2023-04-08T05:55:08.978Z,100.00
2023-04-08T05:57:35.660Z,100.00
2023-04-08T06:00:02.463Z,98.88
2023-04-08T06:02:29.176Z,100.00
2023-04-08T06:04:55.987Z,99.15
2023-04-08T06:07:22.633Z,100.00
2023-04-08T06:09:49.314Z,100.00
2023-04-08T06:12:15.958Z,96.92
2023-04-08T06:14:42.708Z,97.08
2023-04-08T06:17:09.389Z,94.25
2023-04-08T06:19:36.109Z,92.07
2023-04-08T06:22:02.815Z,86.02
2023-04-08T06:24:29.574Z,82.12
2023-04-08T06:26:56.770Z,80.18
2023-04-08T06:29:23.968Z,81.78
2023-04-08T06:31:51.274Z,83.74
2023-04-08T06:34:18.008Z,79.91
2023-04-08T06:36:44.575Z,82.01
2023-04-08T06:39:11.441Z,80.06
2023-04-08T06:41:38.132Z,81.90
2023-04-08T06:44:04.846Z,82.62
2023-04-08T06:46:31.454Z,86.92
2023-04-08T06:48:58.174Z,82.38
2023-04-08T06:51:24.895Z,79.18
2023-04-08T06:53:51.507Z,81.49
2023-04-08T06:56:18.253Z,81.74
2023-04-08T06:58:44.988Z,81.21
2023-04-08T07:01:11.800Z,79.25
2023-04-08T07:03:38.514Z,78.17
2023-04-08T07:06:05.269Z,82.56
2023-04-08T07:08:31.842Z,90.42
2023-04-08T07:10:58.556Z,80.63
2023-04-08T07:13:25.218Z,78.95
2023-04-08T07:15:52.259Z,75.72
2023-04-08T07:18:18.919Z,74.43
2023-04-08T07:20:45.525Z,72.68
2023-04-08T07:23:12.073Z,71.56
2023-04-08T07:25:38.668Z,70.48
2023-04-08T07:28:05.365Z,72.48
2023-04-08T07:30:32.293Z,73.30
2023-04-08T07:33:00.917Z,76.35
2023-04-08T07:35:28.036Z,76.65
2023-04-08T07:37:55.675Z,76.75
2023-04-08T07:40:22.527Z,75.56
2023-04-08T07:42:49.382Z,76.42
2023-04-08T07:45:16.156Z,74.97
2023-04-08T07:47:42.821Z,73.67
2023-04-08T07:50:09.859Z,73.41
2023-04-08T07:52:36.429Z,70.87
2023-04-08T07:55:03.184Z,70.50
2023-04-08T07:57:29.953Z,71.66
2023-04-08T07:59:56.643Z,69.25
2023-04-08T08:02:23.814Z,68.95
2023-04-08T08:04:50.697Z,69.14
2023-04-08T08:07:17.557Z,70.04
2023-04-08T08:09:44.281Z,68.50
2023-04-08T08:12:11.720Z,67.13
2023-04-08T08:14:38.800Z,68.65
2023-04-08T08:17:05.524Z,70.67
2023-04-08T08:19:32.227Z,75.10
2023-04-08T08:21:58.867Z,78.19
2023-04-08T08:24:26.076Z,79.84
2023-04-08T08:26:52.756Z,76.95
2023-04-08T08:29:19.349Z,75.34
2023-04-08T08:31:46.278Z,75.87
2023-04-08T08:34:13.097Z,76.35
2023-04-08T08:36:39.879Z,76.09
2023-04-08T08:39:06.588Z,76.38
2023-04-08T08:41:36.104Z,76.07
2023-04-08T08:44:05.515Z,75.52
2023-04-08T08:46:32.454Z,71.27
2023-04-08T08:48:59.226Z,68.08
2023-04-08T08:51:28.013Z,66.14
2023-04-08T08:53:54.799Z,67.44
2023-04-08T08:56:22.116Z,67.66
2023-04-08T08:58:49.252Z,68.54
2023-04-08T09:01:34.341Z,71.24
2023-04-08T09:04:16.635Z,68.90
2023-04-08T09:06:48.862Z,65.59
2023-04-08T09:09:16.017Z,66.65
2023-04-08T09:11:45.050Z,66.64
2023-04-08T09:14:23.046Z,68.17
2023-04-08T09:16:51.169Z,68.54
2023-04-08T09:19:18.543Z,64.78
2023-04-08T09:21:45.451Z,66.35
2023-04-08T09:24:29.061Z,66.50
2023-04-08T09:26:56.616Z,67.27
2023-04-08T09:29:30.066Z,68.07
2023-04-08T09:32:00.313Z,62.13
2023-04-08T09:34:38.007Z,60.68
2023-04-08T09:37:04.697Z,61.49
2023-04-08T09:39:31.672Z,60.62
2023-04-08T09:42:01.555Z,59.94
2023-04-08T09:44:30.607Z,58.80
2023-04-08T09:47:08.565Z,60.72
2023-04-08T09:49:41.013Z,59.88
2023-04-08T09:52:11.303Z,60.56
2023-04-08T09:54:41.142Z,60.84
2023-04-08T09:57:16.437Z,62.04
2023-04-08T09:59:51.367Z,59.73
2023-04-08T10:02:29.519Z,58.96
2023-04-08T10:05:01.242Z,58.54
2023-04-08T10:07:28.203Z,57.71
2023-04-08T10:09:55.135Z,57.82
2023-04-08T10:12:22.024Z,59.67
2023-04-08T10:15:26.493Z,57.04
2023-04-08T10:18:20.391Z,56.70
2023-04-08T10:20:49.340Z,57.65
2023-04-08T10:23:19.244Z,58.09
2023-04-08T10:25:50.223Z,57.77
2023-04-08T10:28:18.307Z,56.84
2023-04-08T10:30:46.743Z,56.66
2023-04-08T10:33:22.014Z,55.90
2023-04-08T10:36:10.386Z,54.56
2023-04-08T10:38:40.197Z,57.19
2023-04-08T10:41:06.936Z,58.46
2023-04-08T10:43:34.668Z,54.73
2023-04-08T10:46:02.253Z,54.46
2023-04-08T10:48:29.442Z,52.93
2023-04-08T10:51:04.099Z,53.25
2023-04-08T10:53:33.786Z,52.38
2023-04-08T10:56:19.666Z,52.51
2023-04-08T10:58:56.303Z,52.09
2023-04-08T11:01:23.702Z,52.55
2023-04-08T11:03:50.861Z,53.66
2023-04-08T11:06:19.593Z,53.94
2023-04-08T11:08:46.451Z,54.42
2023-04-08T11:11:13.297Z,54.02
2023-04-08T11:13:51.051Z,54.42
2023-04-08T11:16:20.881Z,53.86
2023-04-08T11:18:48.326Z,54.47
2023-04-08T11:21:16.839Z,52.53
2023-04-08T11:23:43.808Z,50.64
2023-04-08T11:26:11.449Z,50.23
2023-04-08T11:28:38.850Z,49.74
2023-04-08T11:31:06.375Z,50.39
2023-04-08T11:33:35.191Z,51.62
2023-04-08T11:36:04.784Z,51.55
2023-04-08T11:38:32.894Z,51.88
2023-04-08T11:41:00.630Z,51.85
2023-04-08T11:43:27.669Z,52.05
2023-04-08T11:45:54.547Z,50.93
2023-04-08T11:48:21.499Z,50.02
2023-04-08T11:50:48.684Z,50.95
2023-04-08T11:53:22.686Z,50.58
2023-04-08T11:55:49.636Z,49.06
2023-04-08T11:58:16.551Z,49.16
2023-04-08T12:00:43.930Z,49.10
2023-04-08T12:03:11.667Z,49.61
2023-04-08T12:05:39.057Z,49.30
2023-04-08T12:08:06.020Z,49.50
2023-04-08T12:10:33.060Z,49.88
2023-04-08T12:12:59.713Z,49.83
2023-04-08T12:15:26.745Z,49.47
2023-04-08T12:17:53.614Z,49.09
2023-04-08T12:20:21.064Z,48.59
2023-04-08T12:22:48.045Z,48.32
2023-04-08T12:25:14.908Z,48.16
2023-04-08T12:27:42.300Z,48.77
2023-04-08T12:30:09.898Z,48.28
2023-04-08T12:32:36.650Z,48.56
2023-04-08T12:35:03.531Z,48.41
2023-04-08T12:37:30.472Z,48.10
2023-04-08T12:39:57.431Z,47.76
2023-04-08T12:42:24.381Z,47.38
2023-04-08T12:44:51.121Z,47.33
2023-04-08T12:47:18.538Z,47.15
2023-04-08T12:49:49.698Z,47.78
2023-04-08T12:52:17.685Z,48.54
2023-04-08T12:54:44.825Z,48.79
2023-04-08T12:57:12.015Z,48.35
2023-04-08T12:59:40.179Z,48.73
2023-04-08T13:02:08.109Z,49.63
2023-04-08T13:04:35.447Z,50.64
2023-04-08T13:07:02.566Z,51.48
2023-04-08T13:09:30.792Z,52.42
2023-04-08T13:11:58.456Z,53.36
2023-04-08T13:14:25.837Z,53.14
2023-04-08T13:16:52.818Z,53.82
2023-04-08T13:19:19.808Z,55.45
2023-04-08T13:21:46.660Z,55.12
2023-04-08T13:24:13.437Z,52.39
2023-04-08T13:26:40.667Z,51.24
2023-04-08T13:29:07.509Z,51.14
2023-04-08T13:31:34.595Z,52.59
2023-04-08T13:34:01.556Z,53.31
2023-04-08T13:36:29.159Z,52.91
2023-04-08T13:38:56.669Z,52.43
2023-04-08T13:41:23.712Z,52.60
2023-04-08T13:43:50.596Z,52.30
2023-04-08T13:46:18.262Z,51.33
2023-04-08T13:48:46.556Z,50.04
2023-04-08T13:51:13.758Z,50.25
2023-04-08T13:53:41.003Z,49.98
2023-04-08T13:56:08.198Z,49.10
2023-04-08T13:58:35.595Z,49.22
2023-04-08T14:01:02.859Z,49.39
2023-04-08T14:03:29.694Z,49.32
2023-04-08T14:05:58.136Z,49.08
2023-04-08T14:08:26.060Z,49.97
2023-04-08T14:10:53.856Z,50.71
2023-04-08T14:13:21.010Z,50.74
2023-04-08T14:15:48.261Z,50.42
2023-04-08T14:18:17.683Z,50.09
2023-04-08T14:20:44.605Z,50.88
2023-04-08T14:23:13.505Z,51.27
2023-04-08T14:25:41.054Z,51.29
2023-04-08T14:28:08.098Z,50.95
2023-04-08T14:30:36.545Z,52.62
2023-04-08T14:33:05.356Z,57.77
2023-04-08T14:35:32.196Z,61.06
2023-04-08T14:37:59.439Z,62.17
2023-04-08T14:40:26.291Z,62.06
2023-04-08T14:42:53.219Z,60.40
2023-04-08T14:45:20.117Z,61.78
2023-04-08T14:47:47.197Z,60.03
2023-04-08T14:50:14.083Z,59.21
2023-04-08T14:52:41.067Z,59.13
2023-04-08T14:55:08.065Z,58.02
2023-04-08T14:57:34.687Z,59.61
2023-04-08T15:00:01.940Z,59.43
2023-04-08T15:02:28.793Z,60.56
2023-04-08T15:04:55.654Z,62.67
2023-04-08T15:07:22.758Z,63.82
2023-04-08T15:09:49.452Z,66.65
2023-04-08T15:12:16.248Z,67.11
2023-04-08T15:14:43.090Z,68.70
2023-04-08T15:17:10.378Z,70.98
2023-04-08T15:19:37.197Z,73.63
2023-04-08T15:22:04.031Z,75.01
2023-04-08T15:24:30.843Z,76.97
2023-04-08T15:26:57.673Z,78.31
2023-04-08T15:29:24.806Z,82.59
2023-04-08T15:31:52.604Z,85.11
2023-04-08T15:34:19.472Z,84.78
2023-04-08T15:36:47.462Z,84.53
2023-04-08T15:39:14.256Z,84.70
2023-04-08T15:41:41.798Z,85.03
2023-04-08T15:44:08.581Z,86.19
2023-04-08T15:46:37.435Z,87.92
2023-04-08T15:49:05.111Z,89.11
2023-04-08T15:51:32.485Z,88.54
2023-04-08T15:53:59.931Z,89.31
2023-04-08T15:56:28.360Z,89.24
2023-04-08T15:58:56.860Z,90.00
2023-04-08T16:01:23.627Z,89.30
2023-04-08T16:03:50.741Z,90.38
2023-04-08T16:06:17.801Z,91.33
2023-04-08T16:08:47.044Z,90.87
2023-04-08T16:11:13.810Z,91.79
2023-04-08T16:13:42.416Z,93.68
2023-04-08T16:16:09.639Z,94.36
2023-04-08T16:18:36.460Z,95.71
2023-04-08T16:21:06.614Z,95.45
2023-04-08T16:23:35.663Z,95.42
2023-04-08T16:26:02.551Z,96.03
2023-04-08T16:28:29.488Z,95.37
2023-04-08T16:30:56.136Z,95.70
2023-04-08T16:33:29.860Z,96.54
2023-04-08T16:36:04.299Z,96.92
2023-04-08T16:38:31.080Z,97.26
2023-04-08T16:41:01.220Z,97.60
2023-04-08T16:43:28.103Z,99.48
2023-04-08T16:45:55.061Z,100.00
2023-04-08T16:48:22.482Z,100.00
2023-04-08T16:50:49.289Z,100.00
2023-04-08T16:53:16.007Z,100.00
2023-04-08T16:55:42.780Z,100.00
2023-04-08T16:58:09.595Z,100.00
2023-04-08T17:00:36.452Z,100.00
2023-04-08T17:03:03.470Z,100.00
2023-04-08T17:05:30.235Z,100.00
2023-04-08T17:07:57.199Z,100.00
2023-04-08T17:10:24.397Z,100.00
2023-04-08T17:12:51.623Z,100.00
2023-04-08T17:15:18.379Z,100.00
2023-04-08T17:17:45.463Z,100.00
2023-04-08T17:20:12.481Z,100.00
2023-04-08T17:22:39.418Z,100.00
2023-04-08T17:25:06.708Z,100.00
2023-04-08T17:27:34.043Z,100.00
2023-04-08T17:30:00.817Z,100.00
2023-04-08T17:32:27.760Z,100.00
2023-04-08T17:34:54.765Z,100.00
2023-04-08T17:37:21.753Z,100.00
2023-04-08T17:39:48.452Z,100.00
2023-04-08T17:42:15.107Z,100.00
2023-04-08T17:44:42.215Z,100.00
2023-04-08T17:47:09.185Z,100.00
2023-04-08T17:49:36.198Z,100.00
2023-04-08T17:52:03.134Z,100.00
2023-04-08T17:54:31.523Z,100.00
2023-04-08T17:56:58.532Z,100.00
2023-04-08T17:59:25.762Z,100.00
2023-04-08T18:01:52.788Z,100.00
2023-04-08T18:04:19.670Z,100.00
2023-04-08T18:06:46.815Z,100.00
2023-04-08T18:09:15.970Z,100.00
2023-04-08T18:11:42.790Z,100.00
2023-04-08T18:14:09.524Z,100.00
2023-04-08T18:16:36.293Z,100.00
2023-04-08T18:19:03.388Z,100.00
2023-04-08T18:21:31.750Z,100.00
2023-04-08T18:23:58.449Z,100.00
2023-04-08T18:26:25.570Z,100.00
2023-04-08T18:28:52.299Z,100.00
2023-04-08T18:31:19.224Z,100.00
2023-04-08T18:33:46.113Z,100.00
2023-04-08T18:36:13.946Z,100.00
2023-04-08T18:38:41.320Z,100.00
2023-04-08T18:41:08.464Z,100.00
2023-04-08T18:43:35.318Z,100.00
2023-04-08T18:46:02.357Z,100.00
2023-04-08T18:48:30.041Z,100.00
2023-04-08T18:50:57.896Z,100.00
2023-04-08T18:53:24.670Z,100.00
2023-04-08T18:55:51.861Z,100.00
2023-04-08T18:58:19.014Z,100.00
2023-04-08T19:00:46.208Z,100.00
2023-04-08T19:03:13.278Z,100.00
2023-04-08T19:05:40.254Z,100.00
2023-04-08T19:08:07.100Z,100.00
2023-04-08T19:10:34.593Z,100.00
2023-04-08T19:13:04.091Z,100.00
2023-04-08T19:15:31.234Z,100.00
2023-04-08T19:17:59.320Z,100.00
2023-04-08T19:20:29.065Z,100.00
2023-04-08T19:22:56.057Z,100.00
2023-04-08T19:25:22.972Z,100.00
2023-04-08T19:27:49.992Z,100.00
2023-04-08T19:30:16.916Z,100.00
2023-04-08T19:32:44.755Z,100.00
2023-04-08T19:35:13.111Z,100.00
2023-04-08T19:37:40.558Z,100.00
2023-04-08T19:40:09.057Z,100.00
2023-04-08T19:42:36.563Z,100.00
2023-04-08T19:45:03.854Z,100.00
2023-04-08T19:47:30.603Z,100.00
2023-04-08T19:49:58.470Z,100.00
2023-04-08T19:52:25.586Z,100.00
2023-04-08T19:54:52.588Z,100.00
2023-04-08T19:57:20.711Z,100.00
2023-04-08T19:59:50.234Z,100.00
2023-04-08T20:02:17.269Z,100.00
2023-04-08T20:04:45.735Z,100.00
2023-04-08T20:07:13.360Z,100.00
2023-04-08T20:09:40.120Z,100.00
2023-04-08T20:12:07.139Z,100.00
2023-04-08T20:14:40.636Z,100.00
2023-04-08T20:17:07.699Z,100.00
2023-04-08T20:19:36.967Z,100.00
2023-04-08T20:22:06.216Z,100.00
2023-04-08T20:24:33.149Z,100.00
2023-04-08T20:27:00.393Z,100.00
2023-04-08T20:29:28.716Z,100.00
2023-04-08T20:31:55.680Z,100.00
2023-04-08T20:34:22.625Z,100.00
2023-04-08T20:36:49.408Z,100.00
2023-04-08T20:39:16.500Z,100.00
2023-04-08T20:41:43.351Z,100.00
2023-04-08T20:44:10.842Z,100.00
2023-04-08T20:46:38.400Z,100.00
2023-04-08T20:49:08.164Z,100.00
2023-04-08T20:51:35.360Z,100.00
2023-04-08T20:54:05.557Z,100.00
2023-04-08T20:56:32.591Z,100.00
2023-04-08T20:59:00.450Z,100.00
2023-04-08T21:01:27.454Z,100.00
2023-04-08T21:03:54.906Z,100.00
2023-04-08T21:06:22.314Z,100.00
2023-04-08T21:08:50.210Z,100.00
2023-04-08T21:11:17.401Z,100.00
2023-04-08T21:13:45.024Z,100.00
2023-04-08T21:16:13.524Z,100.00
2023-04-08T21:18:40.691Z,100.00
2023-04-08T21:21:09.766Z,100.00
2023-04-08T21:23:36.504Z,100.00
2023-04-08T21:26:03.776Z,100.00
2023-04-08T21:28:30.945Z,100.00
2023-04-08T21:31:08.183Z,100.00
2023-04-08T21:33:34.967Z,100.00
2023-04-08T21:36:01.805Z,100.00
2023-04-08T21:38:28.758Z,100.00
2023-04-08T21:40:55.749Z,100.00
2023-04-08T21:43:22.597Z,100.00
2023-04-08T21:45:49.447Z,100.00
2023-04-08T21:48:16.285Z,100.00
2023-04-08T21:50:43.098Z,100.00
2023-04-08T21:53:09.747Z,100.00
2023-04-08T21:55:36.499Z,100.00
2023-04-08T21:58:03.356Z,100.00
2023-04-08T22:00:30.250Z,100.00
2023-04-08T22:02:57.238Z,100.00
2023-04-08T22:05:24.071Z,100.00
2023-04-08T22:07:50.835Z,100.00
2023-04-08T22:10:17.588Z,100.00
2023-04-08T22:12:44.398Z,100.00
2023-04-08T22:15:11.443Z,100.00
2023-04-08T22:17:38.389Z,100.00
2023-04-08T22:20:05.722Z,100.00
2023-04-08T22:22:32.689Z,100.00
2023-04-08T22:24:59.429Z,100.00
2023-04-08T22:27:28.560Z,100.00
2023-04-08T22:29:55.330Z,100.00
2023-04-08T22:32:21.929Z,100.00
2023-04-08T22:34:48.739Z,100.00
2023-04-08T22:37:15.574Z,100.00
2023-04-08T22:39:42.217Z,100.00
2023-04-08T22:42:09.088Z,100.00
2023-04-08T22:44:36.117Z,100.00
2023-04-08T22:47:02.952Z,100.00
2023-04-08T22:49:29.718Z,100.00
2023-04-08T22:51:56.417Z,100.00
2023-04-08T22:54:23.259Z,100.00
2023-04-08T22:56:50.026Z,100.00
2023-04-08T22:59:25.555Z,100.00
2023-04-08T23:01:52.335Z,100.00
2023-04-08T23:04:19.092Z,100.00
2023-04-08T23:06:46.027Z,100.00
2023-04-08T23:09:12.955Z,100.00
2023-04-08T23:11:39.716Z,100.00
2023-04-08T23:14:06.530Z,100.00
2023-04-08T23:16:35.385Z,100.00
2023-04-08T23:19:02.243Z,100.00
2023-04-08T23:21:29.047Z,100.00
2023-04-08T23:23:55.885Z,100.00
2023-04-08T23:26:22.525Z,100.00
2023-04-08T23:28:49.900Z,100.00
2023-04-08T23:31:17.368Z,100.00
2023-04-08T23:33:44.156Z,100.00
2023-04-08T23:36:12.045Z,100.00
2023-04-08T23:38:39.002Z,100.00
2023-04-08T23:41:07.016Z,100.00
2023-04-08T23:43:34.517Z,100.00
2023-04-08T23:46:01.338Z,100.00
2023-04-08T23:48:28.208Z,100.00
2023-04-08T23:50:55.570Z,100.00
2023-04-08T23:53:22.637Z,100.00
2023-04-08T23:55:49.470Z,100.00
2023-04-08T23:58:16.451Z,100.00
